Time;durP1;ratioP1;P1;durP2;ratioP2;P2;SDS_P1;SDS_P2;PMS_P1;PMS_P2;Temp;Humidity;BMP_temperature;BMP_pressure;BME280_temperature;BME280_humidity;BME280_pressure;Samples;Min_cycle;Max_cycle;Signal;HPM_P1;HPM_P2
2023/03/07 00:00:04;;;;;;;9.73;5.40;;;;;;;0.83;100.00;94676.69;1014765;29;20024;-68
2023/03/07 00:00:35;;;;;;;14.00;6.30;;;;;;;0.84;100.00;94670.50;1019734;29;20687;-68
2023/03/07 00:01:05;;;;;;;12.88;6.82;;;;;;;0.83;100.00;94666.38;1019210;28;20038;-68
2023/03/07 00:01:36;;;;;;;15.90;6.85;;;;;;;0.77;100.00;94656.94;1019070;29;20123;-67
2023/03/07 00:02:06;;;;;;;10.35;5.78;;;;;;;0.77;100.00;94659.53;1026459;28;20038;-67
2023/03/07 00:02:37;;;;;;;11.07;5.80;;;;;;;0.82;100.00;94669.97;1026448;28;20026;-69
2023/03/07 00:03:13;;;;;;;10.18;6.32;;;;;;;0.82;100.00;94657.84;1029721;28;20451;-67
2023/03/07 00:03:43;;;;;;;12.70;5.88;;;;;;;0.85;100.00;94662.56;1028630;28;20052;-68
2023/03/07 00:04:14;;;;;;;14.50;6.65;;;;;;;0.81;100.00;94655.50;1026506;28;20030;-66
2023/03/07 00:04:45;;;;;;;12.35;6.53;;;;;;;0.84;100.00;94657.59;1024763;28;20019;-67
2023/03/07 00:05:15;;;;;;;11.94;6.04;;;;;;;0.82;100.00;94655.25;1018104;29;20055;-67
2023/03/07 00:05:46;;;;;;;11.27;6.20;;;;;;;0.79;100.00;94649.75;1014634;29;20028;-69
2023/03/07 00:06:16;;;;;;;13.20;5.85;;;;;;;0.83;100.00;94656.81;1017303;29;20020;-68
2023/03/07 00:06:47;;;;;;;12.48;6.38;;;;;;;0.84;100.00;94657.59;1018510;29;20012;-67
2023/03/07 00:07:17;;;;;;;11.02;6.30;;;;;;;0.84;100.00;94657.59;1022489;28;20023;-68
2023/03/07 00:07:47;;;;;;;12.60;6.68;;;;;;;0.82;100.00;94657.06;1014664;29;20064;-68
2023/03/07 00:08:18;;;;;;;11.75;6.20;;;;;;;0.81;100.00;94658.06;1014740;29;20030;-67
2023/03/07 00:08:52;;;;;;;13.25;6.55;;;;;;;0.74;100.00;94649.66;1010602;29;20020;-67
2023/03/07 00:09:23;;;;;;;11.18;5.56;;;;;;;0.80;100.00;94659.06;1014616;29;20495;-65
2023/03/07 00:09:53;;;;;;;11.45;5.85;;;;;;;0.79;100.00;94657.50;1016186;29;20036;-70
2023/03/07 00:10:24;;;;;;;12.57;6.30;;;;;;;0.79;100.00;94660.09;1019010;29;20016;-68
2023/03/07 00:10:55;;;;;;;13.80;6.03;;;;;;;0.79;100.00;94660.09;1018978;28;20422;-69
2023/03/07 00:11:25;;;;;;;14.18;6.32;;;;;;;0.77;100.00;94646.63;1022588;29;20027;-67
2023/03/07 00:11:56;;;;;;;12.68;6.63;;;;;;;0.82;100.00;94646.72;1018619;29;20019;-69
2023/03/07 00:12:26;;;;;;;11.40;5.88;;;;;;;0.83;100.00;94653.44;1022455;29;20574;-68
2023/03/07 00:12:57;;;;;;;11.82;6.20;;;;;;;0.82;100.00;94655.25;1022774;28;20677;-68
2023/03/07 00:13:30;;;;;;;9.90;6.05;;;;;;;0.82;100.00;94652.69;1020779;28;20079;-67
2023/03/07 00:14:00;;;;;;;9.72;5.94;;;;;;;0.77;100.00;94646.63;1022958;28;20034;-67
2023/03/07 00:14:30;;;;;;;12.18;6.32;;;;;;;0.83;100.00;94654.25;1026612;28;20346;-66
2023/03/07 00:15:01;;;;;;;11.43;5.95;;;;;;;0.82;100.00;94650.09;1026465;28;20030;-65
2023/03/07 00:15:31;;;;;;;13.77;6.45;;;;;;;0.79;100.00;94649.75;1025760;28;20082;-68
2023/03/07 00:16:03;;;;;;;11.10;6.22;;;;;;;0.73;100.00;94640.34;1026634;28;20074;-68
2023/03/07 00:16:33;;;;;;;12.40;6.50;;;;;;;0.75;100.00;94654.59;1019045;29;20035;-67
2023/03/07 00:17:04;;;;;;;12.73;5.82;;;;;;;0.75;100.00;94656.41;1020668;28;20035;-68
2023/03/07 00:17:37;;;;;;;13.95;6.07;;;;;;;0.77;100.00;94656.94;1026906;28;20069;-66
2023/03/07 00:18:07;;;;;;;13.78;6.38;;;;;;;0.80;100.00;94653.91;1026827;28;20538;-67
2023/03/07 00:18:38;;;;;;;12.98;6.72;;;;;;;0.79;100.00;94654.94;1030814;28;20030;-69
2023/03/07 00:19:09;;;;;;;11.23;6.43;;;;;;;0.79;100.00;94653.13;1026913;28;20901;-68
2023/03/07 00:19:43;;;;;;;11.77;6.13;;;;;;;0.79;100.00;94654.94;1026038;28;20035;-68
2023/03/07 00:20:14;;;;;;;14.16;6.22;;;;;;;0.82;100.00;94655.25;1022842;28;20027;-65
2023/03/07 00:20:44;;;;;;;11.75;6.22;;;;;;;0.83;100.00;94653.44;1023367;28;20108;-67
2023/03/07 00:21:19;;;;;;;10.75;6.13;;;;;;;0.80;100.00;94652.09;1026597;28;20031;-68
2023/03/07 00:21:49;;;;;;;11.50;6.60;;;;;;;0.79;100.00;94647.19;1023639;28;20031;-69
2023/03/07 00:22:20;;;;;;;12.52;6.00;;;;;;;0.78;100.00;94649.00;1026728;28;20420;-67
2023/03/07 00:22:50;;;;;;;11.18;5.93;;;;;;;0.77;100.00;94639.69;1023012;29;20061;-68
2023/03/07 00:23:21;;;;;;;13.40;6.35;;;;;;;0.77;100.00;94646.63;1026599;28;20023;-63
2023/03/07 00:23:51;;;;;;;12.70;6.43;;;;;;;0.78;100.00;94653.38;1024746;28;20028;-66
2023/03/07 00:24:22;;;;;;;11.75;6.40;;;;;;;0.75;100.00;94652.03;1022638;29;20027;-66
2023/03/07 00:24:52;;;;;;;13.15;6.47;;;;;;;0.69;100.00;94648.53;1022752;29;20027;-68
2023/03/07 00:25:23;;;;;;;14.25;6.40;;;;;;;0.75;100.00;94653.81;1022268;28;20035;-69
2023/03/07 00:26:20;;;;;;;12.38;6.38;;;;;;;0.75;100.00;94648.66;1022707;28;20028;-68
2023/03/07 00:26:50;;;;;;;10.54;5.48;;;;;;;0.76;100.00;94648.41;1020760;29;20046;-67
2023/03/07 00:27:21;;;;;;;11.38;6.15;;;;;;;0.77;100.00;94646.63;1022245;28;20039;-68
2023/03/07 00:27:51;;;;;;;12.20;6.00;;;;;;;0.72;100.00;94644.72;1022699;29;20387;-69
2023/03/07 00:28:22;;;;;;;15.30;5.72;;;;;;;0.75;100.00;94646.84;1014635;29;20086;-67
2023/03/07 00:28:53;;;;;;;11.60;6.32;;;;;;;0.76;100.00;94650.22;1011913;29;20052;-68
2023/03/07 00:29:23;;;;;;;11.55;6.78;;;;;;;0.75;100.00;94646.06;1017780;29;20024;-66
2023/03/07 00:29:54;;;;;;;11.13;6.13;;;;;;;0.75;100.00;94643.50;1018509;29;20024;-68
2023/03/07 00:30:24;;;;;;;11.40;6.32;;;;;;;0.82;100.00;94650.09;1022444;29;20023;-67
2023/03/07 00:30:58;;;;;;;11.75;7.13;;;;;;;0.76;100.00;94642.47;1018403;29;20035;-70
2023/03/07 00:31:28;;;;;;;16.54;6.38;;;;;;;0.80;100.00;94643.59;1014563;29;20031;-68
2023/03/07 00:31:59;;;;;;;12.10;6.43;;;;;;;0.78;100.00;94654.16;1015325;29;20040;-66
2023/03/07 00:32:29;;;;;;;10.57;6.13;;;;;;;0.78;100.00;94648.19;1014885;29;20028;-68
2023/03/07 00:33:00;;;;;;;12.13;6.13;;;;;;;0.78;100.00;94648.19;1018855;28;20050;-68
2023/03/07 00:33:30;;;;;;;11.35;5.72;;;;;;;0.79;100.00;94642.03;1026350;28;20642;-68
2023/03/07 00:34:01;;;;;;;12.75;6.70;;;;;;;0.79;100.00;94642.81;1022544;28;20016;-65
2023/03/07 00:34:31;;;;;;;11.25;5.80;;;;;;;0.76;100.00;94634.72;1026658;28;20070;-68
2023/03/07 00:35:02;;;;;;;12.75;6.65;;;;;;;0.77;100.00;94639.69;1021658;28;20034;-68
2023/03/07 00:35:32;;;;;;;10.43;5.95;;;;;;;0.78;100.00;94645.63;1022359;28;20035;-68
2023/03/07 00:36:10;;;;;;;13.13;6.28;;;;;;;0.79;100.00;94637.63;1026318;28;20058;-67
2023/03/07 00:36:40;;;;;;;12.22;6.06;;;;;;;0.79;100.00;94637.63;1019572;29;20735;-64
2023/03/07 00:37:11;;;;;;;12.77;6.90;;;;;;;0.79;100.00;94635.06;1019066;29;20032;-68
2023/03/07 00:37:41;;;;;;;13.48;6.82;;;;;;;0.83;100.00;94638.75;1018142;29;20545;-68
2023/03/07 00:38:12;;;;;;;12.02;6.32;;;;;;;0.72;100.00;94629.25;1019669;29;20028;-68
2023/03/07 00:38:42;;;;;;;14.48;6.97;;;;;;;0.78;100.00;94635.28;1022457;28;20027;-68
2023/03/07 00:39:13;;;;;;;10.20;6.03;;;;;;;0.79;100.00;94631.69;1017494;29;20105;-69
2023/03/07 00:39:43;;;;;;;10.80;6.03;;;;;;;0.77;100.00;94629.34;1022034;29;20082;-68
2023/03/07 00:40:14;;;;;;;11.23;6.07;;;;;;;0.69;100.00;94617.56;1019486;29;20099;-68
2023/03/07 00:40:45;;;;;;;12.25;6.28;;;;;;;0.76;100.00;94626.97;1017520;29;20031;-66
2023/03/07 00:41:22;;;;;;;12.68;7.18;;;;;;;0.67;100.00;94617.03;1018311;29;20027;-69
2023/03/07 00:41:52;;;;;;;13.90;6.97;;;;;;;0.75;100.00;94625.44;1018369;29;20036;-69
2023/03/07 00:42:23;;;;;;;13.10;6.30;;;;;;;0.75;100.00;94630.59;1019555;28;20267;-67
2023/03/07 00:42:53;;;;;;;11.93;5.85;;;;;;;0.73;100.00;94630.81;1019353;29;20031;-67
2023/03/07 00:43:24;;;;;;;12.95;6.97;;;;;;;0.75;100.00;94633.16;1020921;28;20038;-69
2023/03/07 00:43:54;;;;;;;13.10;6.35;;;;;;;0.73;100.00;94625.63;1026299;28;20070;-69
2023/03/07 00:44:28;;;;;;;14.63;6.45;;;;;;;0.74;100.00;94634.97;1018369;29;20230;-67
2023/03/07 00:44:59;;;;;;;12.40;6.60;;;;;;;0.77;100.00;94631.13;1018440;28;20043;-66
2023/03/07 00:45:29;;;;;;;14.32;6.80;;;;;;;0.76;100.00;94629.56;1014371;29;20040;-65
2023/03/07 00:46:00;;;;;;;12.18;6.53;;;;;;;0.75;100.00;94633.16;1011022;29;20095;-68
2023/03/07 00:46:30;;;;;;;13.55;6.85;;;;;;;0.78;100.00;94635.28;1010608;29;20028;-68
2023/03/07 00:47:01;;;;;;;10.82;6.53;;;;;;;0.81;100.00;94633.03;1010710;29;20021;-65
2023/03/07 00:47:31;;;;;;;10.30;5.85;;;;;;;0.78;100.00;94630.13;1010606;29;20482;-67
2023/03/07 00:48:02;;;;;;;13.68;6.70;;;;;;;0.78;100.00;94628.34;1014294;29;20032;-68
2023/03/07 00:48:33;;;;;;;13.38;6.85;;;;;;;0.72;100.00;94620.72;1021888;29;20547;-67
2023/03/07 00:49:04;;;;;;;11.44;6.14;;;;;;;0.72;100.00;94624.06;1014991;29;20696;-66
2023/03/07 00:49:34;;;;;;;11.43;5.95;;;;;;;0.69;100.00;94622.72;1021857;28;20082;-68
2023/03/07 00:50:05;;;;;;;13.63;6.95;;;;;;;0.69;100.00;94635.63;1026309;28;20110;-66
2023/03/07 00:50:35;;;;;;;11.40;6.10;;;;;;;0.67;100.00;94627.34;1026369;28;20110;-68
2023/03/07 00:51:07;;;;;;;12.48;6.28;;;;;;;0.65;100.00;94629.38;1030265;28;20022;-66
2023/03/07 00:51:38;;;;;;;13.46;6.46;;;;;;;0.69;100.00;94629.69;1022561;29;20050;-67
2023/03/07 00:52:08;;;;;;;12.05;6.57;;;;;;;0.65;100.00;94629.38;1018729;29;20204;-66
2023/03/07 00:52:38;;;;;;;12.32;6.78;;;;;;;0.65;100.00;94631.94;1022130;28;20024;-68
2023/03/07 00:53:09;;;;;;;12.70;6.55;;;;;;;0.65;100.00;94631.94;1022661;28;20031;-67
2023/03/07 00:53:39;;;;;;;10.55;6.35;;;;;;;0.64;100.00;94627.81;1018434;29;20083;-67
2023/03/07 00:54:10;;;;;;;11.38;6.82;;;;;;;0.63;100.00;94631.38;1022352;29;20118;-68
2023/03/07 00:54:40;;;;;;;14.40;6.45;;;;;;;0.65;100.00;94623.41;1022137;28;20507;-67
2023/03/07 00:55:11;;;;;;;13.13;6.20;;;;;;;0.60;100.00;94621.50;1014721;29;20102;-67
2023/03/07 00:55:41;;;;;;;13.13;6.68;;;;;;;0.65;100.00;94621.63;1022248;28;20042;-67
2023/03/07 00:56:23;;;;;;;14.50;6.47;;;;;;;0.62;100.00;94622.06;1018301;29;20078;-68
2023/03/07 00:56:53;;;;;;;16.78;6.86;;;;;;;0.66;100.00;94625.75;1017255;29;20533;-68
2023/03/07 00:57:23;;;;;;;11.98;6.80;;;;;;;0.64;100.00;94622.66;1022463;29;20082;-69
2023/03/07 00:57:54;;;;;;;11.68;6.28;;;;;;;0.61;100.00;94617.94;1021576;29;20086;-69
2023/03/07 00:58:29;;;;;;;13.52;6.15;;;;;;;0.61;100.00;94619.72;1021408;28;20638;-68
2023/03/07 00:58:59;;;;;;;13.16;6.80;;;;;;;0.63;100.00;94626.22;1026417;28;20532;-68
2023/03/07 00:59:29;;;;;;;11.93;6.68;;;;;;;0.63;100.00;94633.97;1022125;28;20047;-69
2023/03/07 01:00:00;;;;;;;12.55;6.43;;;;;;;0.58;100.00;94615.81;1026369;28;20671;-67
2023/03/07 01:00:30;;;;;;;13.10;6.95;;;;;;;0.63;100.00;94618.47;1025837;28;20039;-66
2023/03/07 01:01:02;;;;;;;11.43;6.57;;;;;;;0.52;100.00;94611.53;1022287;28;20030;-67
2023/03/07 01:01:32;;;;;;;12.08;6.64;;;;;;;0.62;100.00;94623.88;1026427;28;20035;-67
2023/03/07 01:02:03;;;;;;;12.07;6.95;;;;;;;0.65;100.00;94613.09;1026339;28;20050;-66
2023/03/07 01:02:33;;;;;;;14.50;6.93;;;;;;;0.63;100.00;94615.88;1022445;29;20035;-66
2023/03/07 01:03:04;;;;;;;12.23;6.63;;;;;;;0.67;100.00;94617.03;1022281;28;20591;-66
2023/03/07 01:03:34;;;;;;;16.67;6.68;;;;;;;0.65;100.00;94613.09;1022414;28;20042;-67
2023/03/07 01:04:05;;;;;;;11.60;6.28;;;;;;;0.56;100.00;94610.06;1018414;29;20047;-69
2023/03/07 01:04:35;;;;;;;13.00;6.85;;;;;;;0.60;100.00;94612.97;1018271;29;20036;-67
2023/03/07 01:05:06;;;;;;;13.02;6.45;;;;;;;0.61;100.00;94615.34;1018270;29;20032;-67
2023/03/07 01:05:39;;;;;;;13.32;6.70;;;;;;;0.61;100.00;94612.78;1022343;28;20035;-69
2023/03/07 01:06:13;;;;;;;12.94;6.76;;;;;;;0.59;100.00;94607.03;1015042;28;20034;-69
2023/03/07 01:06:44;;;;;;;12.56;6.54;;;;;;;0.54;100.00;94604.38;1022334;29;20046;-66
2023/03/07 01:07:14;;;;;;;13.07;6.55;;;;;;;0.63;100.00;94608.16;1022389;29;20094;-67
2023/03/07 01:07:45;;;;;;;14.07;6.13;;;;;;;0.62;100.00;94609.16;1019343;28;20040;-69
2023/03/07 01:08:15;;;;;;;12.43;6.38;;;;;;;0.59;100.00;94604.47;1022239;28;20539;-67
2023/03/07 01:08:46;;;;;;;13.45;6.72;;;;;;;0.60;100.00;94611.19;1014598;29;20043;-66
2023/03/07 01:09:16;;;;;;;15.40;6.90;;;;;;;0.55;100.00;94605.94;1017902;29;20028;-67
2023/03/07 01:09:50;;;;;;;14.05;6.80;;;;;;;0.61;100.00;94612.00;1014158;29;20036;-68
2023/03/07 01:10:20;;;;;;;14.50;6.74;;;;;;;0.60;100.00;94608.59;1016935;29;20040;-68
2023/03/07 01:10:51;;;;;;;14.38;7.63;;;;;;;0.52;100.00;94598.66;1018381;29;20099;-67
2023/03/07 01:11:21;;;;;;;11.13;5.97;;;;;;;0.59;100.00;94606.25;1014943;29;20047;-68
2023/03/07 01:11:52;;;;;;;13.73;6.03;;;;;;;0.58;100.00;94602.91;1014424;29;20119;-67
2023/03/07 01:12:22;;;;;;;14.30;6.78;;;;;;;0.59;100.00;94607.03;1014627;29;20111;-67
2023/03/07 01:12:53;;;;;;;10.75;5.85;;;;;;;0.57;100.00;94595.38;1018634;29;20020;-66
2023/03/07 01:13:23;;;;;;;12.80;7.07;;;;;;;0.56;100.00;94599.75;1021654;28;20042;-67
2023/03/07 01:13:57;;;;;;;14.70;6.70;;;;;;;0.49;100.00;94590.56;1021766;28;20027;-68
2023/03/07 01:14:28;;;;;;;15.54;6.44;;;;;;;0.53;100.00;94610.53;1022398;29;20592;-67
2023/03/07 01:14:58;;;;;;;12.77;7.10;;;;;;;0.53;100.00;94605.38;1018500;29;20074;-68
2023/03/07 01:15:29;;;;;;;11.93;6.78;;;;;;;0.54;100.00;94600.97;1018672;29;20490;-65
2023/03/07 01:16:20;;;;;;;12.93;6.40;;;;;;;0.54;100.00;94606.94;1014576;29;20024;-67
2023/03/07 01:16:50;;;;;;;13.60;6.42;;;;;;;0.53;100.00;94613.09;1018239;29;20034;-65
2023/03/07 01:17:21;;;;;;;15.38;6.85;;;;;;;0.53;100.00;94604.59;1018339;29;20046;-66
2023/03/07 01:17:51;;;;;;;17.73;7.32;;;;;;;0.51;100.00;94607.41;1020035;29;20023;-67
2023/03/07 01:18:22;;;;;;;13.95;7.13;;;;;;;0.49;100.00;94604.25;1022384;29;20545;-68
2023/03/07 01:18:55;;;;;;;14.60;6.70;;;;;;;0.51;100.00;94607.41;1017101;29;20024;-66
2023/03/07 01:19:25;;;;;;;10.92;6.30;;;;;;;0.49;100.00;94604.25;1005900;29;20040;-67
2023/03/07 01:19:56;;;;;;;14.23;6.72;;;;;;;0.51;100.00;94609.22;1006911;29;20542;-67
2023/03/07 01:20:30;;;;;;;15.38;7.07;;;;;;;0.49;100.00;94604.25;1009037;29;20065;-68
2023/03/07 01:21:01;;;;;;;15.32;7.32;;;;;;;0.50;100.00;94610.97;1015667;29;20442;-65
2023/03/07 01:21:33;;;;;;;13.75;7.22;;;;;;;0.47;100.00;94593.41;1022329;29;20114;-67
2023/03/07 01:22:04;;;;;;;13.42;7.50;;;;;;;0.49;100.00;94606.84;1015235;29;20077;-67
2023/03/07 01:22:34;;;;;;;14.48;6.78;;;;;;;0.47;100.00;94606.28;1018899;29;20031;-69
2023/03/07 01:23:05;;;;;;;15.27;7.18;;;;;;;0.50;100.00;94605.81;1018198;29;20024;-67
2023/03/07 01:23:35;;;;;;;12.50;6.70;;;;;;;0.51;100.00;94607.41;1018201;29;20026;-66
2023/03/07 01:24:06;;;;;;;17.83;8.25;;;;;;;0.53;100.00;94596.84;1014203;29;20020;-67
2023/03/07 01:24:38;;;;;;;16.22;8.26;;;;;;;0.51;100.00;94602.25;1014425;29;20024;-68
2023/03/07 01:25:09;;;;;;;12.74;6.74;;;;;;;0.53;100.00;94605.38;1018288;29;20027;-66
2023/03/07 01:25:42;;;;;;;12.80;6.57;;;;;;;0.47;100.00;94598.56;1018532;29;20413;-67
2023/03/07 01:26:17;;;;;;;16.02;7.74;;;;;;;0.51;100.00;94598.88;1018297;29;20023;-65
2023/03/07 01:26:48;;;;;;;18.72;7.72;;;;;;;0.44;100.00;94586.88;1021121;29;20528;-67
2023/03/07 01:27:18;;;;;;;16.45;7.70;;;;;;;0.44;100.00;94599.00;1022249;28;20019;-66
2023/03/07 01:27:51;;;;;;;16.63;6.60;;;;;;;0.43;100.00;94589.69;1022716;28;20027;-65
2023/03/07 01:28:21;;;;;;;13.60;6.92;;;;;;;0.49;100.00;94590.56;1022340;29;20845;-66
2023/03/07 01:28:53;;;;;;;13.93;6.63;;;;;;;0.47;100.00;94601.13;1023067;28;20023;-68
2023/03/07 01:29:23;;;;;;;12.82;6.82;;;;;;;0.50;100.00;94595.50;1021671;29;20103;-66
2023/03/07 01:29:54;;;;;;;13.50;6.93;;;;;;;0.49;100.00;94604.25;1022101;29;20024;-67
2023/03/07 01:30:24;;;;;;;14.40;7.03;;;;;;;0.49;100.00;94604.25;1018365;29;20031;-69
2023/03/07 01:30:58;;;;;;;13.25;6.93;;;;;;;0.47;100.00;94601.13;1022200;28;20019;-65
2023/03/07 01:31:29;;;;;;;12.60;6.92;;;;;;;0.39;100.00;94589.34;1022245;29;20027;-68
2023/03/07 01:31:59;;;;;;;14.05;7.22;;;;;;;0.46;100.00;94596.97;1018699;29;20032;-67
2023/03/07 01:32:30;;;;;;;15.50;7.57;;;;;;;0.37;100.00;94575.09;1022051;29;20548;-66
2023/03/07 01:33:00;;;;;;;13.65;7.18;;;;;;;0.46;100.00;94594.38;1017083;29;20035;-66
2023/03/07 01:33:31;;;;;;;13.70;7.07;;;;;;;0.47;100.00;94593.41;1014312;29;20063;-66
2023/03/07 01:34:01;;;;;;;14.90;7.13;;;;;;;0.47;100.00;94593.41;1013967;29;20024;-68
2023/03/07 01:34:32;;;;;;;12.55;6.68;;;;;;;0.47;100.00;94595.97;1011304;29;20056;-66
2023/03/07 01:35:03;;;;;;;13.88;7.18;;;;;;;0.39;100.00;94586.78;1018438;29;20039;-67
2023/03/07 01:35:38;;;;;;;13.38;7.10;;;;;;;0.44;100.00;94596.44;1026594;28;20027;-64
2023/03/07 01:36:29;;;;;;;14.38;6.70;;;;;;;0.40;100.00;94580.63;1028564;28;20022;-67
2023/03/07 01:37:00;;;;;;;14.05;6.85;;;;;;;0.45;100.00;94587.66;1022330;29;20042;-67
2023/03/07 01:37:30;;;;;;;11.75;6.30;;;;;;;0.45;100.00;94590.25;1022014;28;20043;-68
2023/03/07 01:38:01;;;;;;;15.02;7.47;;;;;;;0.47;100.00;94586.44;1018231;29;20024;-67
2023/03/07 01:38:33;;;;;;;10.90;6.38;;;;;;;0.48;100.00;94592.38;1018625;29;20027;-68
2023/03/07 01:39:09;;;;;;;14.90;7.54;;;;;;;0.39;100.00;94567.94;1026740;28;20102;-67
2023/03/07 01:39:39;;;;;;;14.68;7.70;;;;;;;0.49;100.00;94588.00;1021695;29;20031;-67
2023/03/07 01:40:11;;;;;;;14.13;6.65;;;;;;;0.49;100.00;94581.03;1025926;28;20085;-66
2023/03/07 01:40:41;;;;;;;13.34;7.40;;;;;;;0.46;100.00;94573.75;1026072;28;20035;-66
2023/03/07 01:41:12;;;;;;;14.40;7.53;;;;;;;0.49;100.00;94582.84;1018148;29;20501;-68
2023/03/07 01:41:43;;;;;;;13.27;6.55;;;;;;;0.45;100.00;94577.34;1018328;29;20031;-68
2023/03/07 01:42:13;;;;;;;13.18;6.82;;;;;;;0.50;100.00;94579.22;1022245;29;20130;-67
2023/03/07 01:42:43;;;;;;;17.60;7.57;;;;;;;0.48;100.00;94582.06;1022234;28;20453;-66
2023/03/07 01:43:22;;;;;;;15.57;8.05;;;;;;;0.46;100.00;94579.69;1028790;28;20044;-68
2023/03/07 01:43:52;;;;;;;16.24;8.00;;;;;;;0.46;100.00;94582.25;1026228;28;20026;-65
2023/03/07 01:44:26;;;;;;;17.17;7.20;;;;;;;0.44;100.00;94575.78;1025924;28;20816;-68
2023/03/07 01:45:04;;;;;;;14.08;6.80;;;;;;;0.47;100.00;94580.50;1026242;28;20516;-68
2023/03/07 01:45:34;;;;;;;15.30;6.60;;;;;;;0.47;100.00;94578.69;1023986;28;20122;-67
2023/03/07 01:46:17;;;;;;;17.00;8.02;;;;;;;0.47;100.00;94576.13;1026090;28;20685;-67
2023/03/07 01:46:52;;;;;;;15.40;6.74;;;;;;;0.50;100.00;94576.66;1021997;29;20106;-67
2023/03/07 01:47:22;;;;;;;18.64;7.74;;;;;;;0.49;100.00;94575.88;1024490;28;20050;-67
2023/03/07 01:47:53;;;;;;;13.45;7.40;;;;;;;0.48;100.00;94576.88;1026207;28;20027;-66
2023/03/07 01:48:23;;;;;;;14.82;7.75;;;;;;;0.46;100.00;94578.91;1018247;29;20043;-66
2023/03/07 01:49:06;;;;;;;16.05;7.30;;;;;;;0.49;100.00;94575.88;1010367;29;20042;-66
2023/03/07 01:49:37;;;;;;;14.84;8.06;;;;;;;0.40;100.00;94565.13;1009521;29;20036;-67
2023/03/07 01:50:12;;;;;;;12.80;6.76;;;;;;;0.44;100.00;94571.41;1016051;29;20020;-68
2023/03/07 01:50:42;;;;;;;14.52;7.64;;;;;;;0.41;100.00;94565.91;1012317;29;20418;-68
2023/03/07 01:51:13;;;;;;;14.73;7.75;;;;;;;0.45;100.00;94572.19;1012930;29;20140;-68
2023/03/07 01:51:45;;;;;;;13.63;7.55;;;;;;;0.41;100.00;94563.34;1014440;29;20028;-67
2023/03/07 01:52:18;;;;;;;15.46;7.60;;;;;;;0.42;100.00;94570.06;1022198;29;20616;-66
2023/03/07 01:52:53;;;;;;;13.70;6.78;;;;;;;0.46;100.00;94573.75;1020564;28;20082;-68
2023/03/07 01:53:23;;;;;;;16.62;7.50;;;;;;;0.50;100.00;94574.84;1018168;29;20534;-68
2023/03/07 01:53:54;;;;;;;13.77;7.25;;;;;;;0.50;100.00;94569.69;1015298;29;20103;-65
2023/03/07 01:54:25;;;;;;;14.20;6.85;;;;;;;0.44;100.00;94560.31;1018191;29;20393;-68
2023/03/07 01:54:59;;;;;;;13.95;7.50;;;;;;;0.49;100.00;94568.13;1018087;29;20023;-66
2023/03/07 01:55:30;;;;;;;15.64;7.10;;;;;;;0.44;100.00;94563.66;1018879;29;20027;-68
2023/03/07 01:56:01;;;;;;;14.72;7.22;;;;;;;0.48;100.00;94566.56;1025384;28;20035;-66
2023/03/07 01:56:31;;;;;;;15.40;7.32;;;;;;;0.50;100.00;94567.09;1026836;28;20489;-67
2023/03/07 01:57:02;;;;;;;11.95;6.60;;;;;;;0.49;100.00;94565.53;1025695;28;20073;-68
2023/03/07 01:57:34;;;;;;;12.07;6.78;;;;;;;0.52;100.00;94567.69;1018340;29;20422;-68
2023/03/07 01:58:07;;;;;;;14.34;7.02;;;;;;;0.50;100.00;94559.38;1021456;28;20019;-63
2023/03/07 01:58:37;;;;;;;15.76;7.84;;;;;;;0.55;100.00;94566.44;1025918;28;20039;-69
2023/03/07 01:59:08;;;;;;;14.80;7.15;;;;;;;0.49;100.00;94555.22;1017773;29;20651;-70
2023/03/07 01:59:41;;;;;;;15.05;7.65;;;;;;;0.54;100.00;94568.25;1021381;28;20011;-68
2023/03/07 02:00:17;;;;;;;16.52;7.72;;;;;;;0.46;100.00;94555.69;1025953;28;20061;-67
2023/03/07 02:00:48;;;;;;;13.84;7.08;;;;;;;0.49;100.00;94560.38;1022246;29;20027;-68
2023/03/07 02:01:19;;;;;;;12.50;7.10;;;;;;;0.55;100.00;94566.44;1025788;28;20099;-67
2023/03/07 02:01:49;;;;;;;15.20;7.85;;;;;;;0.47;100.00;94550.31;1022179;29;20083;-67
2023/03/07 02:02:21;;;;;;;15.55;7.93;;;;;;;0.49;100.00;94557.03;1022077;29;20118;-68
2023/03/07 02:03:14;;;;;;;15.32;7.50;;;;;;;0.49;100.00;94557.81;1014321;29;20080;-68
2023/03/07 02:03:50;;;;;;;12.40;6.74;;;;;;;0.59;100.00;94567.53;1006069;29;20037;-68
2023/03/07 02:04:25;;;;;;;15.10;7.38;;;;;;;0.56;100.00;94565.41;1010053;29;20027;-67
2023/03/07 02:05:13;;;;;;;17.42;7.36;;;;;;;0.50;100.00;94559.38;1017556;29;20027;-68
2023/03/07 02:05:47;;;;;;;13.56;7.12;;;;;;;0.51;100.00;94557.59;1014306;29;20028;-68
2023/03/07 02:06:17;;;;;;;15.48;7.62;;;;;;;0.54;100.00;94554.53;1018021;29;20023;-67
2023/03/07 02:06:48;;;;;;;15.38;8.02;;;;;;;0.56;100.00;94558.47;1018228;29;20023;-67
2023/03/07 02:07:20;;;;;;;12.93;7.35;;;;;;;0.55;100.00;94563.84;1014569;29;20020;-67
2023/03/07 02:07:50;;;;;;;14.40;7.62;;;;;;;0.55;100.00;94562.06;1018403;29;20055;-67
2023/03/07 02:08:21;;;;;;;15.93;7.95;;;;;;;0.59;100.00;94559.81;1018107;29;20027;-65
2023/03/07 02:08:52;;;;;;;12.76;6.80;;;;;;;0.59;100.00;94560.59;1022188;29;20020;-68
2023/03/07 02:09:22;;;;;;;15.45;7.93;;;;;;;0.59;100.00;94557.22;1021371;29;20030;-68
2023/03/07 02:09:52;;;;;;;12.88;7.28;;;;;;;0.63;100.00;94560.91;1021841;28;20094;-66
2023/03/07 02:10:23;;;;;;;13.52;7.50;;;;;;;0.56;100.00;94552.50;1020876;29;20019;-68
2023/03/07 02:10:53;;;;;;;13.40;7.72;;;;;;;0.65;100.00;94562.25;1030310;28;20618;-68
2023/03/07 02:11:24;;;;;;;14.48;7.35;;;;;;;0.54;100.00;94545.00;1029921;28;20026;-68
2023/03/07 02:11:55;;;;;;;15.07;7.53;;;;;;;0.60;100.00;94554.41;1026224;28;20018;-67
2023/03/07 02:12:26;;;;;;;16.70;7.88;;;;;;;0.63;100.00;94553.16;1026486;28;20057;-68
2023/03/07 02:12:56;;;;;;;14.23;7.00;;;;;;;0.63;100.00;94553.94;1026043;28;20049;-66
2023/03/07 02:13:27;;;;;;;13.88;7.38;;;;;;;0.65;100.00;94559.66;1020592;28;20027;-68
2023/03/07 02:13:57;;;;;;;15.65;7.60;;;;;;;0.62;100.00;94554.97;1026142;28;20022;-67
2023/03/07 02:14:28;;;;;;;14.70;6.72;;;;;;;0.60;100.00;94553.63;1022306;29;20038;-68
2023/03/07 02:14:58;;;;;;;13.68;7.15;;;;;;;0.59;100.00;94552.84;1022206;29;20034;-65
2023/03/07 02:15:29;;;;;;;15.15;7.70;;;;;;;0.56;100.00;94537.81;1018071;29;20030;-68
2023/03/07 02:15:59;;;;;;;13.27;7.35;;;;;;;0.57;100.00;94544.56;1022142;29;20643;-66
2023/03/07 02:16:30;;;;;;;14.60;7.00;;;;;;;0.56;100.00;94539.59;1018339;29;20043;-68
2023/03/07 02:17:00;;;;;;;11.90;6.97;;;;;;;0.56;100.00;94547.34;1018189;29;20027;-68
2023/03/07 02:17:31;;;;;;;15.55;7.25;;;;;;;0.52;100.00;94543.66;1014525;29;20036;-69
2023/03/07 02:18:01;;;;;;;19.83;7.82;;;;;;;0.64;100.00;94558.13;1010128;29;20029;-68
2023/03/07 02:18:33;;;;;;;13.70;7.80;;;;;;;0.64;100.00;94555.53;1022018;29;20059;-68
2023/03/07 02:19:21;;;;;;;15.22;7.48;;;;;;;0.67;100.00;94555.06;1014268;29;20023;-66
2023/03/07 02:20:13;;;;;;;15.60;8.08;;;;;;;0.65;100.00;94554.50;1017957;29;20071;-66
2023/03/07 02:20:55;;;;;;;13.68;6.56;;;;;;;0.66;100.00;94556.06;1019451;29;20508;-66
2023/03/07 02:21:35;;;;;;;14.90;7.10;;;;;;;0.65;100.00;94556.31;1026424;28;20070;-69
2023/03/07 02:22:07;;;;;;;;;;;;;;;0.64;100.00;94555.53;1023167;29;20038;-66
2023/03/07 02:22:39;;;;;;;14.08;7.12;;;;;;;0.51;100.00;94539.53;1022681;28;19911;-66
2023/03/07 02:23:13;;;;;;;15.26;6.84;;;;;;;0.56;100.00;94549.94;1013313;29;20048;-66
2023/03/07 02:23:52;;;;;;;13.06;6.86;;;;;;;0.64;100.00;94549.59;1013398;29;20037;-68
2023/03/07 02:24:30;;;;;;;14.90;7.56;;;;;;;0.63;100.00;94548.78;1015179;29;20031;-67
2023/03/07 02:25:12;;;;;;;14.66;6.54;;;;;;;0.64;100.00;94550.38;1018998;29;20050;-66
2023/03/07 02:25:47;;;;;;;15.90;7.54;;;;;;;0.64;100.00;94555.53;1022351;28;20114;-67
2023/03/07 02:26:27;;;;;;;16.22;6.78;;;;;;;0.69;100.00;94553.03;1021009;29;20019;-68
2023/03/07 02:26:57;;;;;;;13.22;7.28;;;;;;;0.67;100.00;94549.91;1026763;28;20519;-66
2023/03/07 02:27:28;;;;;;;14.15;7.45;;;;;;;0.68;100.00;94555.84;1027637;28;20034;-67
2023/03/07 02:27:59;;;;;;;15.56;7.50;;;;;;;0.68;100.00;94555.84;1023100;29;20085;-68
2023/03/07 02:28:29;;;;;;;15.93;7.97;;;;;;;0.59;100.00;94542.50;1014972;29;20446;-68
2023/03/07 02:29:00;;;;;;;17.92;7.38;;;;;;;0.67;100.00;94547.34;1019047;29;20023;-67